createdAt,value
2019-05-01T00:02:15.058Z,42.00
2019-05-01T00:04:53.144Z,35.10
2019-05-01T00:07:39.329Z,38.20
2019-05-01T00:10:13.566Z,41.57
2019-05-01T00:12:47.515Z,40.57
2019-05-01T00:15:32.205Z,42.90
2019-05-01T00:18:06.043Z,41.10
2019-05-01T00:20:39.672Z,43.20
2019-05-01T00:23:28.611Z,40.77
2019-05-01T00:26:02.313Z,42.80
2019-05-01T00:28:35.967Z,44.80
2019-05-01T00:31:34.307Z,42.87
2019-05-01T00:36:40.659Z,43.83
2019-05-01T00:39:15.978Z,49.47
2019-05-01T00:41:49.609Z,43.63
2019-05-01T00:44:23.196Z,45.87
2019-05-01T00:46:59.811Z,41.27
2019-05-01T00:49:33.398Z,44.80
2019-05-01T00:52:07.087Z,43.97
2019-05-01T00:54:42.392Z,45.20
2019-05-01T00:57:23.943Z,44.53
2019-05-01T01:03:35.850Z,45.73
2019-05-01T01:06:10.226Z,46.30
2019-05-01T01:08:43.922Z,46.17
2019-05-01T01:11:17.561Z,47.10
2019-05-01T01:14:12.180Z,47.00
2019-05-01T01:16:45.939Z,49.67
2019-05-01T01:19:35.380Z,47.30
2019-05-01T01:22:09.060Z,45.67
2019-05-01T01:24:43.124Z,42.83
2019-05-01T01:27:39.861Z,49.07
2019-05-01T01:30:13.623Z,42.53
2019-05-01T01:32:47.395Z,49.47
2019-05-01T01:35:48.799Z,46.27
2019-05-01T01:38:22.560Z,48.43
2019-05-01T01:40:56.244Z,47.40
2019-05-01T01:43:47.833Z,48.97
2019-05-01T01:46:38.858Z,45.00
2019-05-01T01:49:12.570Z,47.03
2019-05-01T01:51:46.331Z,48.20
2019-05-01T01:54:20.188Z,42.03
2019-05-01T01:56:53.955Z,49.13
2019-05-01T01:59:31.033Z,46.07
2019-05-01T02:02:19.101Z,47.57
2019-05-01T02:04:57.145Z,47.60
2019-05-01T02:07:30.979Z,51.83
2019-05-01T02:10:06.332Z,51.03
2019-05-01T02:12:41.275Z,55.60
2019-05-01T02:15:15.321Z,52.40
2019-05-01T02:17:57.469Z,47.63
2019-05-01T02:20:31.197Z,48.67
2019-05-01T02:23:04.912Z,48.80
2019-05-01T02:25:40.315Z,48.07
2019-05-01T02:28:47.866Z,50.57
2019-05-01T02:31:28.603Z,49.07
2019-05-01T02:34:03.454Z,44.73
2019-05-01T02:36:41.458Z,43.90
2019-05-01T02:39:16.655Z,44.13
2019-05-01T02:41:52.997Z,42.87
2019-05-01T02:44:35.624Z,37.23
2019-05-01T02:47:12.292Z,39.93
2019-05-01T02:49:51.816Z,40.80
2019-05-01T02:52:28.586Z,42.60
2019-05-01T02:55:06.383Z,43.83
2019-05-01T02:57:42.216Z,38.13
2019-05-01T03:00:16.071Z,42.00
2019-05-01T03:02:50.199Z,41.40
2019-05-01T03:05:24.284Z,43.57
2019-05-01T03:08:01.070Z,40.70
2019-05-01T03:10:35.326Z,39.50
2019-05-01T03:13:09.502Z,42.97
2019-05-01T03:15:44.603Z,42.73
2019-05-01T03:18:22.527Z,39.80
2019-05-01T03:21:00.606Z,40.93
2019-05-01T03:23:36.099Z,43.23
2019-05-01T03:26:10.224Z,41.07
2019-05-01T03:28:44.004Z,38.80
2019-05-01T03:31:18.064Z,41.73
2019-05-01T03:34:10.485Z,36.30
2019-05-01T03:36:44.842Z,35.70
2019-05-01T03:39:18.565Z,40.50
2019-05-01T03:41:53.207Z,41.20
2019-05-01T03:44:27.035Z,48.03
2019-05-01T03:47:01.011Z,39.63
2019-05-01T03:49:34.843Z,40.30
2019-05-01T03:52:11.639Z,40.30
2019-05-01T03:54:45.427Z,44.70
2019-05-01T03:57:19.450Z,39.37
2019-05-01T03:59:53.208Z,39.53
2019-05-01T04:02:34.841Z,39.13
2019-05-01T04:05:17.352Z,41.63
2019-05-01T04:07:51.411Z,37.50
2019-05-01T04:10:27.029Z,41.07
2019-05-01T04:13:03.874Z,37.33
2019-05-01T04:15:37.668Z,41.07
2019-05-01T04:18:17.288Z,43.00
2019-05-01T04:20:51.191Z,37.90
2019-05-01T04:23:25.075Z,36.77
2019-05-01T04:26:03.547Z,37.93
2019-05-01T04:28:42.347Z,39.67
2019-05-01T04:31:21.171Z,38.33
2019-05-01T04:33:56.596Z,41.80
2019-05-01T04:36:32.258Z,39.47
2019-05-01T04:39:08.105Z,36.90
2019-05-01T04:41:47.802Z,37.57
2019-05-01T04:44:21.694Z,35.17
2019-05-01T04:47:10.812Z,35.30
2019-05-01T04:49:44.476Z,37.67
2019-05-01T04:52:18.362Z,36.27
2019-05-01T04:54:52.332Z,39.53
2019-05-01T04:57:26.449Z,35.80
2019-05-01T05:00:00.898Z,44.10
2019-05-01T05:02:37.310Z,38.40
2019-05-01T05:05:11.503Z,36.40
2019-05-01T05:11:21.492Z,36.37
2019-05-01T05:14:27.661Z,37.53
2019-05-01T05:17:03.086Z,35.77
2019-05-01T05:19:50.861Z,36.50
2019-05-01T05:22:25.022Z,34.07
2019-05-01T05:25:00.825Z,35.53
2019-05-01T05:27:35.235Z,35.17
2019-05-01T05:30:09.248Z,36.30
2019-05-01T05:32:55.162Z,30.23
2019-05-01T05:35:31.225Z,37.33
2019-05-01T05:38:27.689Z,36.97
2019-05-01T05:41:03.099Z,33.73
2019-05-01T05:43:37.232Z,33.50
2019-05-01T05:46:42.692Z,35.93
2019-05-01T05:49:16.448Z,34.47
2019-05-01T05:51:53.237Z,31.87
2019-05-01T05:54:31.846Z,31.50
2019-05-01T05:57:09.339Z,34.37
2019-05-01T06:00:37.272Z,34.50
2019-05-01T06:03:46.581Z,32.77
2019-05-01T06:06:27.912Z,36.37
2019-05-01T06:09:09.085Z,34.23
2019-05-01T06:11:52.988Z,36.93
2019-05-01T06:14:47.490Z,35.67
2019-05-01T06:17:28.660Z,30.63
2019-05-01T06:20:02.834Z,32.63
2019-05-01T06:23:04.285Z,31.17
2019-05-01T06:25:41.805Z,34.47
2019-05-01T06:28:19.828Z,33.87
2019-05-01T06:31:23.209Z,33.20
2019-05-01T06:33:55.841Z,33.20
2019-05-01T06:36:34.892Z,32.30
2019-05-01T06:39:11.708Z,37.47
2019-05-01T06:41:45.137Z,32.50
2019-05-01T06:44:44.845Z,33.47
2019-05-01T06:47:23.535Z,33.07
2019-05-01T06:50:19.401Z,33.90
2019-05-01T06:52:53.398Z,32.23
2019-05-01T06:55:28.810Z,31.90
2019-05-01T06:58:03.126Z,30.73
2019-05-01T07:00:43.164Z,31.13
2019-05-01T07:03:17.344Z,33.30
2019-05-01T07:05:54.438Z,33.83
2019-05-01T07:08:35.740Z,30.30
2019-05-01T07:11:10.835Z,29.13
2019-05-01T07:13:55.840Z,27.90
2019-05-01T07:16:33.238Z,29.20
2019-05-01T07:19:07.033Z,24.17
2019-05-01T07:22:01.765Z,28.03
2019-05-01T07:24:34.732Z,30.77
2019-05-01T07:27:08.852Z,29.00
2019-05-01T07:29:44.896Z,25.43
2019-05-01T07:32:29.533Z,28.40
2019-05-01T07:35:03.968Z,25.67
2019-05-01T07:37:38.197Z,25.97
2019-05-01T07:40:12.266Z,25.60
2019-05-01T07:42:48.248Z,24.03
2019-05-01T07:45:44.811Z,24.63
2019-05-01T07:48:21.520Z,24.23
2019-05-01T07:50:55.301Z,21.65
2019-05-01T07:53:29.468Z,23.30
2019-05-01T07:56:05.434Z,23.38
2019-05-01T07:58:39.468Z,21.93
2019-05-01T08:01:33.855Z,23.00
2019-05-01T08:04:07.614Z,22.73
2019-05-01T08:06:52.130Z,21.10
2019-05-01T08:09:26.139Z,22.40
2019-05-01T08:11:59.820Z,20.17
2019-05-01T08:14:58.380Z,16.15
2019-05-01T08:17:33.707Z,15.10
2019-05-01T08:20:29.772Z,18.17
2019-05-01T08:23:03.478Z,15.60
2019-05-01T08:25:37.766Z,18.48
2019-05-01T08:28:31.943Z,15.75
2019-05-01T08:31:11.868Z,17.55
2019-05-01T08:34:03.267Z,18.48
2019-05-01T08:36:36.995Z,17.17
2019-05-01T08:39:13.888Z,16.27
2019-05-01T08:41:47.413Z,20.50
2019-05-01T08:44:24.807Z,16.80
2019-05-01T08:47:00.782Z,19.12
2019-05-01T08:49:54.198Z,14.77
2019-05-01T08:52:28.449Z,14.35
2019-05-01T08:55:04.302Z,11.10
2019-05-01T08:57:44.369Z,19.10
2019-05-01T09:00:18.830Z,14.93
2019-05-01T09:02:53.010Z,12.30
2019-05-01T09:05:35.780Z,11.08
2019-05-01T09:08:10.039Z,12.25
2019-05-01T09:10:44.313Z,16.05
2019-05-01T09:13:31.678Z,15.63
2019-05-01T09:16:06.038Z,10.15
2019-05-01T09:18:43.404Z,10.32
2019-05-01T09:21:17.634Z,11.73
2019-05-01T09:24:12.839Z,12.35
2019-05-01T09:27:02.850Z,10.55
2019-05-01T09:29:46.797Z,10.35
2019-05-01T09:32:21.952Z,10.63
2019-05-01T09:34:58.284Z,9.38
2019-05-01T09:37:32.514Z,10.68
2019-05-01T09:40:09.241Z,12.50
2019-05-01T09:42:44.101Z,10.13
2019-05-01T09:45:27.686Z,11.38
2019-05-01T09:48:02.279Z,12.10
2019-05-01T09:50:38.262Z,10.90
2019-05-01T09:53:14.135Z,11.57
2019-05-01T09:55:50.235Z,9.63
2019-05-01T09:58:25.923Z,9.20
2019-05-01T10:01:04.461Z,8.30
2019-05-01T10:03:38.682Z,7.62
2019-05-01T10:06:17.303Z,7.22
2019-05-01T10:08:51.723Z,9.18
2019-05-01T10:11:26.225Z,7.58
2019-05-01T10:14:00.478Z,8.08
2019-05-01T10:16:34.734Z,6.28
2019-05-01T10:19:08.979Z,6.15
2019-05-01T10:21:43.266Z,7.40
2019-05-01T10:24:17.610Z,6.67
2019-05-01T10:26:55.068Z,7.92
2019-05-01T10:29:49.205Z,6.25
2019-05-01T10:35:25.738Z,5.97
2019-05-01T10:38:00.013Z,6.97
2019-05-01T10:40:34.433Z,7.12
2019-05-01T10:43:11.793Z,6.15
2019-05-01T10:45:46.012Z,6.70
2019-05-01T10:48:20.314Z,6.70
2019-05-01T10:50:54.526Z,6.08
2019-05-01T10:53:28.810Z,7.08
2019-05-01T10:56:05.129Z,7.03
2019-05-01T10:58:39.371Z,7.15
2019-05-01T11:01:31.922Z,8.95
2019-05-01T11:04:07.922Z,6.85
2019-05-01T11:06:54.262Z,9.28
2019-05-01T11:09:28.794Z,8.10
2019-05-01T11:12:08.169Z,8.85
2019-05-01T11:14:42.523Z,6.10
2019-05-01T11:17:22.970Z,7.72
2019-05-01T11:19:57.315Z,7.55
2019-05-01T11:22:31.477Z,7.55
2019-05-01T11:25:07.086Z,8.60
2019-05-01T11:27:43.428Z,7.65
2019-05-01T11:30:17.920Z,8.38
2019-05-01T11:32:56.224Z,8.73
2019-05-01T11:35:48.922Z,8.68
2019-05-01T11:38:34.181Z,10.35
2019-05-01T11:41:10.020Z,7.20
2019-05-01T11:43:44.274Z,10.45
2019-05-01T11:46:20.147Z,8.98
2019-05-01T11:48:54.485Z,10.45
2019-05-01T11:51:28.728Z,10.38
2019-05-01T11:54:03.359Z,7.70
2019-05-01T11:56:37.502Z,9.88
2019-05-01T11:59:11.774Z,8.68
2019-05-01T12:01:46.032Z,7.45
2019-05-01T12:04:26.410Z,8.15
2019-05-01T12:07:00.707Z,10.23
2019-05-01T12:09:53.067Z,9.73
2019-05-01T12:12:29.051Z,9.48
2019-05-01T12:15:05.673Z,10.70
2019-05-01T12:17:59.844Z,11.00
2019-05-01T12:20:34.210Z,9.48
2019-05-01T12:23:08.419Z,9.08
2019-05-01T12:25:42.693Z,12.40
2019-05-01T12:28:16.984Z,10.23
2019-05-01T12:30:51.206Z,10.80
2019-05-01T12:33:25.416Z,11.38
2019-05-01T12:36:01.220Z,11.90
2019-05-01T12:38:35.507Z,12.33
2019-05-01T12:41:23.471Z,12.73
2019-05-01T12:43:57.674Z,10.65
2019-05-01T12:46:41.749Z,7.90
2019-05-01T12:49:17.971Z,9.18
2019-05-01T12:51:55.935Z,10.58
2019-05-01T12:54:40.669Z,10.05
2019-05-01T12:57:16.559Z,8.53
2019-05-01T12:59:50.750Z,6.90
2019-05-01T13:05:25.893Z,8.80
2019-05-01T13:08:00.128Z,9.08
2019-05-01T13:10:34.326Z,9.95
2019-05-01T13:13:14.602Z,11.80
2019-05-01T13:15:48.873Z,12.13
2019-05-01T13:18:23.193Z,10.95
2019-05-01T13:20:57.473Z,12.10
2019-05-01T13:23:31.164Z,12.37
2019-05-01T13:26:07.158Z,12.03
2019-05-01T13:28:42.417Z,17.62
2019-05-01T13:31:20.174Z,13.33
2019-05-01T13:33:54.090Z,16.07
2019-05-01T13:36:27.822Z,15.90
2019-05-01T13:39:02.428Z,13.13
2019-05-01T13:41:36.115Z,13.63
2019-05-01T13:44:09.886Z,17.20
2019-05-01T13:46:44.053Z,14.83
2019-05-01T13:49:22.227Z,11.78
2019-05-01T13:51:56.446Z,15.55
2019-05-01T13:54:30.694Z,19.20
2019-05-01T13:57:08.256Z,15.40
2019-05-01T13:59:42.495Z,18.55
2019-05-01T14:02:16.453Z,18.77
2019-05-01T14:04:51.064Z,20.52
2019-05-01T14:07:25.705Z,16.67
2019-05-01T14:09:59.923Z,17.60
2019-05-01T14:12:41.810Z,20.50
2019-05-01T14:15:15.473Z,16.23
2019-05-01T14:17:49.140Z,16.50
2019-05-01T14:20:39.669Z,18.03
2019-05-01T14:23:37.115Z,19.48
2019-05-01T14:26:10.793Z,20.53
2019-05-01T14:28:56.491Z,22.37
2019-05-01T14:31:30.982Z,19.00
2019-05-01T14:34:04.782Z,21.20
2019-05-01T14:36:38.453Z,18.73
2019-05-01T14:39:12.600Z,22.30
2019-05-01T14:41:46.847Z,19.95
2019-05-01T14:44:21.140Z,18.42
2019-05-01T14:46:54.819Z,18.90
2019-05-01T14:49:28.830Z,18.00
2019-05-01T14:52:02.505Z,19.83
2019-05-01T14:54:36.277Z,19.48
2019-05-01T14:57:10.741Z,17.98
2019-05-01T14:59:46.489Z,20.10
2019-05-01T15:02:36.715Z,16.45
2019-05-01T15:05:10.702Z,18.43
2019-05-01T15:07:44.346Z,18.07
2019-05-01T15:10:48.459Z,17.77
2019-05-01T15:13:40.481Z,18.13
2019-05-01T15:16:16.046Z,16.17
2019-05-01T15:19:12.703Z,19.53
2019-05-01T15:21:46.473Z,17.70
2019-05-01T15:24:20.611Z,20.02
2019-05-01T15:26:54.293Z,19.80
2019-05-01T15:32:03.611Z,20.63
2019-05-01T15:34:45.704Z,15.37
2019-05-01T15:37:19.319Z,20.77
2019-05-01T15:39:58.799Z,17.23
2019-05-01T15:42:43.270Z,18.20
2019-05-01T15:45:17.606Z,17.60
2019-05-01T15:47:55.374Z,18.90
2019-05-01T15:50:29.691Z,21.77
2019-05-01T15:53:03.378Z,15.53
2019-05-01T15:55:36.991Z,19.47
2019-05-01T15:58:11.347Z,16.87
2019-05-01T16:00:44.944Z,19.77
2019-05-01T16:03:18.553Z,19.17
2019-05-01T16:05:52.666Z,17.70
2019-05-01T16:08:26.775Z,21.23
2019-05-01T16:11:33.525Z,18.82
2019-05-01T16:14:07.367Z,17.03
2019-05-01T16:16:44.044Z,17.00
2019-05-01T16:19:17.770Z,15.20
2019-05-01T16:21:51.473Z,15.77
2019-05-01T16:24:31.149Z,19.43
2019-05-01T16:27:05.315Z,23.37
2019-05-01T16:29:57.199Z,17.83
2019-05-01T16:32:31.024Z,16.37
2019-05-01T16:35:05.164Z,18.00
2019-05-01T16:37:50.905Z,16.17
2019-05-01T16:40:26.263Z,25.50
2019-05-01T16:43:02.956Z,16.20
2019-05-01T16:45:36.650Z,22.20
2019-05-01T16:48:23.074Z,19.90
2019-05-01T16:50:56.738Z,17.23
2019-05-01T16:53:47.498Z,18.33
2019-05-01T16:56:21.092Z,20.67
2019-05-01T16:59:16.200Z,15.77
2019-05-01T17:01:51.574Z,15.27
2019-05-01T17:04:42.043Z,16.43
2019-05-01T17:07:17.276Z,15.17
2019-05-01T17:10:09.187Z,16.77
2019-05-01T17:12:47.663Z,19.77
2019-05-01T17:15:26.262Z,17.77
2019-05-01T17:18:09.170Z,19.13
2019-05-01T17:20:42.799Z,14.47
2019-05-01T17:23:16.490Z,15.73
2019-05-01T17:26:05.590Z,15.87
2019-05-01T17:28:39.259Z,16.03
2019-05-01T17:31:13.282Z,13.97
2019-05-01T17:34:02.115Z,17.10
2019-05-01T17:36:35.746Z,14.50
2019-05-01T17:39:09.474Z,14.87
2019-05-01T17:41:43.119Z,10.97
2019-05-01T17:44:25.401Z,15.37
2019-05-01T17:46:55.717Z,9.40
2019-05-01T17:49:48.039Z,14.00
2019-05-01T17:52:21.722Z,12.77
2019-05-01T17:55:01.342Z,10.20
2019-05-01T17:57:34.972Z,12.23
2019-05-01T18:00:30.897Z,12.83
2019-05-01T18:09:01.782Z,10.93
2019-05-01T18:11:24.270Z,13.40
2019-05-01T18:13:57.944Z,10.03
2019-05-01T18:16:44.593Z,12.17
2019-05-01T18:19:18.241Z,11.60
2019-05-01T18:21:53.680Z,12.37
2019-05-01T18:24:47.200Z,14.17
2019-05-01T18:30:32.960Z,10.50
2019-05-01T18:33:15.023Z,17.37
2019-05-01T18:35:49.176Z,11.07
2019-05-01T18:38:30.913Z,12.50
2019-05-01T18:41:09.303Z,8.20
2019-05-01T18:43:42.896Z,8.40
2019-05-01T18:46:17.203Z,8.53
2019-05-01T18:48:50.923Z,9.70
2019-05-01T18:51:24.917Z,9.10
2019-05-01T18:53:58.944Z,9.27
2019-05-01T18:56:32.352Z,8.30
2019-05-01T18:59:06.107Z,10.63
2019-05-01T19:01:43.936Z,6.10
2019-05-01T19:04:18.423Z,8.27
2019-05-01T19:06:52.728Z,11.30
2019-05-01T19:09:38.768Z,7.47
2019-05-01T19:12:13.277Z,10.67
2019-05-01T19:14:47.119Z,9.10
2019-05-01T19:17:20.880Z,6.90
2019-05-01T19:19:54.790Z,12.37
2019-05-01T19:22:28.372Z,8.53
2019-05-01T19:25:15.999Z,8.00
2019-05-01T19:27:49.826Z,12.50
2019-05-01T19:30:32.488Z,12.20
2019-05-01T19:33:06.260Z,9.97
2019-05-01T19:35:40.027Z,9.40
2019-05-01T19:38:14.541Z,9.93
2019-05-01T19:40:54.338Z,8.70
2019-05-01T19:43:28.035Z,8.57
2019-05-01T19:46:19.809Z,9.60
2019-05-01T19:48:53.568Z,9.20
2019-05-01T19:51:27.299Z,12.80
2019-05-01T19:54:04.257Z,12.80
2019-05-01T19:56:38.112Z,9.80
2019-05-01T19:59:11.995Z,11.90
2019-05-01T20:02:00.710Z,10.73
2019-05-01T20:04:34.332Z,9.73
2019-05-01T20:07:10.512Z,9.03
2019-05-01T20:09:56.970Z,9.03
2019-05-01T20:12:44.735Z,10.90
2019-05-01T20:18:35.190Z,11.83
2019-05-01T20:21:08.950Z,7.13
2019-05-01T20:23:45.744Z,11.63
2019-05-01T20:26:19.438Z,12.40
2019-05-01T20:28:57.483Z,7.53
2019-05-01T20:31:32.920Z,9.03
2019-05-01T20:34:06.668Z,8.63
2019-05-01T20:36:40.430Z,9.60
2019-05-01T20:39:14.279Z,11.33
2019-05-01T20:41:48.002Z,9.93
2019-05-01T20:44:23.922Z,10.30
2019-05-01T20:46:58.448Z,9.73
2019-05-01T20:49:36.377Z,11.80
2019-05-01T20:52:12.669Z,10.53
2019-05-01T20:54:46.351Z,8.50
2019-05-01T20:57:39.442Z,12.90
2019-05-01T21:00:16.516Z,9.17
2019-05-01T21:02:49.315Z,10.70
2019-05-01T21:05:27.577Z,11.03
2019-05-01T21:08:02.800Z,11.80
2019-05-01T21:10:50.989Z,9.70
2019-05-01T21:13:25.115Z,9.60
2019-05-01T21:16:08.067Z,9.23
2019-05-01T21:18:42.758Z,12.13
2019-05-01T21:21:16.445Z,9.67
2019-05-01T21:23:56.652Z,14.00
2019-05-01T21:26:28.854Z,18.30
2019-05-01T21:29:09.607Z,12.10
2019-05-01T21:31:44.089Z,12.43
2019-05-01T21:34:17.982Z,12.27
2019-05-01T21:36:52.720Z,9.83
2019-05-01T21:39:34.675Z,10.03
2019-05-01T21:42:11.597Z,10.27
2019-05-01T21:44:44.101Z,11.53
2019-05-01T21:47:17.723Z,15.23
2019-05-01T21:49:56.278Z,16.13
2019-05-01T21:52:33.302Z,10.47
2019-05-01T21:55:07.753Z,13.27
2019-05-01T21:57:41.706Z,9.33
2019-05-01T22:00:20.070Z,10.53
2019-05-01T22:02:52.123Z,16.80
2019-05-01T22:05:27.250Z,12.90
2019-05-01T22:08:03.651Z,9.10
2019-05-01T22:10:51.762Z,11.77
2019-05-01T22:13:20.379Z,16.53
2019-05-01T22:15:55.339Z,11.13
2019-05-01T22:18:30.666Z,13.00
2019-05-01T22:21:18.429Z,9.47
2019-05-01T22:23:56.563Z,11.93
2019-05-01T22:26:35.237Z,11.40
2019-05-01T22:29:10.941Z,11.80
2019-05-01T22:31:52.889Z,10.87
2019-05-01T22:34:43.092Z,11.57
2019-05-01T22:37:17.026Z,11.77
2019-05-01T22:39:52.648Z,11.63
2019-05-01T22:42:38.569Z,13.27
2019-05-01T22:45:25.660Z,13.40
2019-05-01T22:47:59.321Z,10.83
2019-05-01T22:50:33.018Z,9.73
2019-05-01T22:53:12.731Z,8.50
2019-05-01T22:55:43.251Z,13.77
2019-05-01T22:58:38.020Z,13.83
2019-05-01T23:01:13.172Z,11.57
2019-05-01T23:03:52.052Z,11.97
2019-05-01T23:06:25.669Z,13.20
2019-05-01T23:08:59.254Z,9.80
2019-05-01T23:11:34.653Z,11.43
2019-05-01T23:14:08.398Z,11.53
2019-05-01T23:16:43.723Z,13.93
2019-05-01T23:19:29.805Z,12.73
2019-05-01T23:22:03.596Z,9.30
2019-05-01T23:24:37.280Z,12.33
2019-05-01T23:27:24.444Z,11.83
2019-05-01T23:29:58.349Z,16.93
2019-05-01T23:32:35.681Z,10.70
2019-05-01T23:35:09.444Z,17.63
2019-05-01T23:37:43.172Z,13.60
2019-05-01T23:40:17.076Z,15.23
2019-05-01T23:42:53.520Z,13.40
2019-05-01T23:45:26.089Z,11.67
2019-05-01T23:47:59.793Z,13.80
2019-05-01T23:50:46.862Z,15.53
2019-05-01T23:53:20.485Z,8.60
2019-05-01T23:56:00.238Z,13.90
2019-05-01T23:58:31.400Z,17.00
